Главная страница
METAR-TAF:

METAR-TAF

Аэропорты :

Куусамо, Финляндия

широта: 65-58N, долгота: 029-11E, высота над уровнем моря: 262 м

Текущие метеонаблюдения

Эта сводка был подготовлена 29 минут назад, в 03:20 UTC
Ветер 8 Узел от западный, изменяющийся между юго-западный и западно-северо-западный
Температура -4°C
Влажность 93%
Давление 1028 hPa
Видимость 10 км и более
Сплошная облачность на высоте 600 фута

METAR: EFKS 140320Z AUTO 26008KT 230V290 9999 OVC006 M04/M05 Q1028

Время: 05:49 (03:49 UTC)

Прогноз

Эта сводка был подготовлена 10 часа и 25 минут назад, в 17:24 UTC
Прогноз действительный с 13-го 18 UTC до 13-го 22 UTC
Ветер 8 Узел от западный-юго-западный
Видимость: 8000 м
Рассеянная облачность на высоте 500 фута
временами
С 13-го 18 UTC до 13-го 22 UTC
Видимость: 6000 м
Рассеянная облачность на высоте 300 фута
небольшой снег

TAF: EFKS 131724Z 1318/1322 24008KT 8000 BKN005 TEMPO 1318/1322 6000 -SN BKN003

Метеонаблюдения и прогнозы для более 4000 аэропортов (сводки METAR и TAF).

Имеющиеся станции представлены на карте желтыми и красными точками.

Чтобы увидеть название станции, наведите на нее мышь.

Затем щелкните, чтобы увидеть метеонаблюдения и метеопрогнозы.

Управление картой: чтобы увеличить масштаб, щелкните зеленые кнопки с черным крестиком; чтобы уменьшить масштаб, щелкните зеленую кнопку с тире; для просмотра соседних карт щелкайте зеленые стрелки.


METAR-TAF: